sensor_id;sensor_type;location;lat;lon;timestamp;P1;durP1;ratioP1;P2;durP2;ratioP2
80891;SDS011;70343;51.530;5.050;2023-07-02T00:01:41;15.55;;;7.40;;
80891;SDS011;70343;51.530;5.050;2023-07-02T00:04:16;15.68;;;8.13;;
80891;SDS011;70343;51.530;5.050;2023-07-02T00:06:47;17.73;;;8.55;;
80891;SDS011;70343;51.530;5.050;2023-07-02T00:09:13;15.82;;;9.15;;
80891;SDS011;70343;51.530;5.050;2023-07-02T00:11:43;21.65;;;9.65;;
80891;SDS011;70343;51.530;5.050;2023-07-02T00:14:13;18.08;;;9.57;;
80891;SDS011;70343;51.530;5.050;2023-07-02T00:16:39;14.63;;;7.78;;
80891;SDS011;70343;51.530;5.050;2023-07-02T00:19:11;15.70;;;7.97;;
80891;SDS011;70343;51.530;5.050;2023-07-02T00:21:38;20.25;;;10.15;;
80891;SDS011;70343;51.530;5.050;2023-07-02T00:24:05;19.58;;;8.18;;
80891;SDS011;70343;51.530;5.050;2023-07-02T00:26:32;20.38;;;8.82;;
80891;SDS011;70343;51.530;5.050;2023-07-02T00:28:57;19.98;;;9.35;;
80891;SDS011;70343;51.530;5.050;2023-07-02T00:31:23;19.95;;;9.85;;
80891;SDS011;70343;51.530;5.050;2023-07-02T00:33:52;18.25;;;9.75;;
80891;SDS011;70343;51.530;5.050;2023-07-02T00:36:21;20.27;;;9.15;;
80891;SDS011;70343;51.530;5.050;2023-07-02T00:38:47;21.40;;;10.50;;
80891;SDS011;70343;51.530;5.050;2023-07-02T00:41:13;16.48;;;9.50;;
80891;SDS011;70343;51.530;5.050;2023-07-02T00:43:45;24.02;;;9.90;;
80891;SDS011;70343;51.530;5.050;2023-07-02T00:46:11;21.95;;;10.93;;
80891;SDS011;70343;51.530;5.050;2023-07-02T00:48:53;21.67;;;10.75;;
80891;SDS011;70343;51.530;5.050;2023-07-02T00:51:23;22.27;;;10.57;;
80891;SDS011;70343;51.530;5.050;2023-07-02T00:53:50;23.02;;;11.15;;
80891;SDS011;70343;51.530;5.050;2023-07-02T00:56:17;21.98;;;11.90;;
80891;SDS011;70343;51.530;5.050;2023-07-02T00:58:47;21.08;;;11.60;;
80891;SDS011;70343;51.530;5.050;2023-07-02T01:01:15;23.33;;;12.07;;
80891;SDS011;70343;51.530;5.050;2023-07-02T01:06:31;25.35;;;12.45;;
80891;SDS011;70343;51.530;5.050;2023-07-02T01:12:47;25.20;;;12.68;;
80891;SDS011;70343;51.530;5.050;2023-07-02T01:15:14;25.40;;;13.35;;
80891;SDS011;70343;51.530;5.050;2023-07-02T01:18:49;22.65;;;11.70;;
80891;SDS011;70343;51.530;5.050;2023-07-02T01:21:20;24.02;;;11.48;;
80891;SDS011;70343;51.530;5.050;2023-07-02T01:23:55;23.95;;;12.45;;
80891;SDS011;70343;51.530;5.050;2023-07-02T01:26:22;32.83;;;13.25;;
80891;SDS011;70343;51.530;5.050;2023-07-02T01:28:48;27.58;;;13.63;;
80891;SDS011;70343;51.530;5.050;2023-07-02T01:31:19;26.08;;;13.55;;
80891;SDS011;70343;51.530;5.050;2023-07-02T01:33:50;21.77;;;12.65;;
80891;SDS011;70343;51.530;5.050;2023-07-02T01:39:47;28.55;;;13.45;;
80891;SDS011;70343;51.530;5.050;2023-07-02T01:44:54;25.30;;;12.57;;
80891;SDS011;70343;51.530;5.050;2023-07-02T01:47:26;27.92;;;13.18;;
80891;SDS011;70343;51.530;5.050;2023-07-02T01:52:52;24.10;;;12.18;;
80891;SDS011;70343;51.530;5.050;2023-07-02T01:55:18;27.52;;;12.82;;
80891;SDS011;70343;51.530;5.050;2023-07-02T02:00:38;25.67;;;11.80;;
80891;SDS011;70343;51.530;5.050;2023-07-02T02:03:04;27.10;;;12.90;;
80891;SDS011;70343;51.530;5.050;2023-07-02T02:05:29;27.25;;;12.10;;
80891;SDS011;70343;51.530;5.050;2023-07-02T02:07:55;22.85;;;11.23;;
80891;SDS011;70343;51.530;5.050;2023-07-02T02:10:21;26.42;;;12.45;;
80891;SDS011;70343;51.530;5.050;2023-07-02T02:12:46;24.35;;;12.70;;
80891;SDS011;70343;51.530;5.050;2023-07-02T02:15:13;25.67;;;12.20;;
80891;SDS011;70343;51.530;5.050;2023-07-02T02:17:39;24.45;;;12.73;;
80891;SDS011;70343;51.530;5.050;2023-07-02T02:20:14;21.48;;;12.02;;
80891;SDS011;70343;51.530;5.050;2023-07-02T02:22:39;26.27;;;12.63;;
80891;SDS011;70343;51.530;5.050;2023-07-02T02:25:05;19.55;;;11.45;;
80891;SDS011;70343;51.530;5.050;2023-07-02T02:27:31;27.40;;;11.90;;
80891;SDS011;70343;51.530;5.050;2023-07-02T02:30:07;23.50;;;11.75;;
80891;SDS011;70343;51.530;5.050;2023-07-02T02:32:47;23.35;;;10.73;;
80891;SDS011;70343;51.530;5.050;2023-07-02T02:38:24;26.70;;;10.32;;
80891;SDS011;70343;51.530;5.050;2023-07-02T02:40:49;23.63;;;11.70;;
80891;SDS011;70343;51.530;5.050;2023-07-02T02:43:18;26.20;;;11.25;;
80891;SDS011;70343;51.530;5.050;2023-07-02T02:45:45;23.05;;;11.30;;
80891;SDS011;70343;51.530;5.050;2023-07-02T02:48:13;22.90;;;10.68;;
80891;SDS011;70343;51.530;5.050;2023-07-02T02:51:11;21.60;;;10.05;;
80891;SDS011;70343;51.530;5.050;2023-07-02T02:57:10;17.17;;;10.10;;
80891;SDS011;70343;51.530;5.050;2023-07-02T02:59:35;20.52;;;9.98;;
80891;SDS011;70343;51.530;5.050;2023-07-02T03:02:01;17.08;;;9.02;;
80891;SDS011;70343;51.530;5.050;2023-07-02T03:04:26;17.85;;;9.27;;
80891;SDS011;70343;51.530;5.050;2023-07-02T03:06:52;15.85;;;8.27;;
80891;SDS011;70343;51.530;5.050;2023-07-02T03:09:18;16.90;;;8.25;;
80891;SDS011;70343;51.530;5.050;2023-07-02T03:11:44;15.80;;;7.93;;
80891;SDS011;70343;51.530;5.050;2023-07-02T03:14:11;16.50;;;7.10;;
80891;SDS011;70343;51.530;5.050;2023-07-02T03:16:36;15.63;;;7.68;;
80891;SDS011;70343;51.530;5.050;2023-07-02T03:19:02;16.80;;;7.07;;
80891;SDS011;70343;51.530;5.050;2023-07-02T03:21:28;16.92;;;8.75;;
80891;SDS011;70343;51.530;5.050;2023-07-02T03:23:55;17.98;;;7.65;;
80891;SDS011;70343;51.530;5.050;2023-07-02T03:26:21;17.40;;;7.45;;
80891;SDS011;70343;51.530;5.050;2023-07-02T03:28:59;16.52;;;7.88;;
80891;SDS011;70343;51.530;5.050;2023-07-02T03:31:25;15.75;;;7.53;;
80891;SDS011;70343;51.530;5.050;2023-07-02T03:33:50;13.55;;;6.50;;
80891;SDS011;70343;51.530;5.050;2023-07-02T03:36:42;15.70;;;7.50;;
80891;SDS011;70343;51.530;5.050;2023-07-02T03:39:09;14.90;;;7.22;;
80891;SDS011;70343;51.530;5.050;2023-07-02T03:44:41;14.38;;;6.20;;
80891;SDS011;70343;51.530;5.050;2023-07-02T03:49:58;18.77;;;6.88;;
80891;SDS011;70343;51.530;5.050;2023-07-02T03:52:24;14.98;;;6.13;;
80891;SDS011;70343;51.530;5.050;2023-07-02T03:54:49;14.13;;;6.72;;
80891;SDS011;70343;51.530;5.050;2023-07-02T03:57:18;15.52;;;7.00;;
80891;SDS011;70343;51.530;5.050;2023-07-02T03:59:51;13.90;;;7.68;;
80891;SDS011;70343;51.530;5.050;2023-07-02T04:02:34;17.63;;;7.82;;
80891;SDS011;70343;51.530;5.050;2023-07-02T04:05:12;15.93;;;7.22;;
80891;SDS011;70343;51.530;5.050;2023-07-02T04:07:40;14.02;;;7.47;;
80891;SDS011;70343;51.530;5.050;2023-07-02T04:13:22;11.32;;;6.00;;
80891;SDS011;70343;51.530;5.050;2023-07-02T04:16:00;13.52;;;7.43;;
80891;SDS011;70343;51.530;5.050;2023-07-02T04:18:28;16.75;;;7.20;;
80891;SDS011;70343;51.530;5.050;2023-07-02T04:21:00;18.48;;;7.65;;
80891;SDS011;70343;51.530;5.050;2023-07-02T04:23:29;15.52;;;6.18;;
80891;SDS011;70343;51.530;5.050;2023-07-02T04:26:15;17.35;;;7.35;;
80891;SDS011;70343;51.530;5.050;2023-07-02T04:28:40;16.63;;;6.88;;
80891;SDS011;70343;51.530;5.050;2023-07-02T04:31:06;17.10;;;7.75;;
80891;SDS011;70343;51.530;5.050;2023-07-02T04:33:31;16.05;;;6.90;;
80891;SDS011;70343;51.530;5.050;2023-07-02T04:36:02;18.33;;;7.65;;
80891;SDS011;70343;51.530;5.050;2023-07-02T04:38:28;20.27;;;6.72;;
80891;SDS011;70343;51.530;5.050;2023-07-02T04:40:54;13.88;;;6.78;;
80891;SDS011;70343;51.530;5.050;2023-07-02T04:43:22;14.02;;;6.75;;
80891;SDS011;70343;51.530;5.050;2023-07-02T04:45:48;17.20;;;6.53;;
80891;SDS011;70343;51.530;5.050;2023-07-02T04:48:14;13.18;;;6.82;;
80891;SDS011;70343;51.530;5.050;2023-07-02T04:50:41;13.90;;;7.13;;
80891;SDS011;70343;51.530;5.050;2023-07-02T04:53:07;17.77;;;6.68;;
80891;SDS011;70343;51.530;5.050;2023-07-02T04:55:32;13.90;;;6.40;;
80891;SDS011;70343;51.530;5.050;2023-07-02T04:57:57;15.82;;;6.10;;
80891;SDS011;70343;51.530;5.050;2023-07-02T05:00:23;13.10;;;6.20;;
80891;SDS011;70343;51.530;5.050;2023-07-02T05:02:49;15.05;;;6.40;;
80891;SDS011;70343;51.530;5.050;2023-07-02T05:05:14;15.27;;;6.55;;
80891;SDS011;70343;51.530;5.050;2023-07-02T05:07:41;14.75;;;6.40;;
80891;SDS011;70343;51.530;5.050;2023-07-02T05:10:06;16.52;;;7.68;;
80891;SDS011;70343;51.530;5.050;2023-07-02T05:12:32;23.15;;;6.78;;
80891;SDS011;70343;51.530;5.050;2023-07-02T05:14:58;17.75;;;6.43;;
80891;SDS011;70343;51.530;5.050;2023-07-02T05:17:23;15.48;;;6.32;;
80891;SDS011;70343;51.530;5.050;2023-07-02T05:19:49;14.32;;;6.40;;
80891;SDS011;70343;51.530;5.050;2023-07-02T05:22:14;17.20;;;6.18;;
80891;SDS011;70343;51.530;5.050;2023-07-02T05:24:40;15.05;;;6.40;;
80891;SDS011;70343;51.530;5.050;2023-07-02T05:27:06;14.93;;;6.43;;
80891;SDS011;70343;51.530;5.050;2023-07-02T05:29:31;16.42;;;7.03;;
80891;SDS011;70343;51.530;5.050;2023-07-02T05:31:57;15.98;;;6.35;;
80891;SDS011;70343;51.530;5.050;2023-07-02T05:34:22;13.95;;;6.22;;
80891;SDS011;70343;51.530;5.050;2023-07-02T05:36:48;14.70;;;6.10;;
80891;SDS011;70343;51.530;5.050;2023-07-02T05:39:13;13.38;;;6.05;;
80891;SDS011;70343;51.530;5.050;2023-07-02T05:41:39;14.25;;;5.03;;
80891;SDS011;70343;51.530;5.050;2023-07-02T05:44:04;11.05;;;5.18;;
80891;SDS011;70343;51.530;5.050;2023-07-02T05:46:30;13.52;;;6.00;;
80891;SDS011;70343;51.530;5.050;2023-07-02T05:48:55;14.05;;;5.38;;
80891;SDS011;70343;51.530;5.050;2023-07-02T05:51:22;12.27;;;5.50;;
80891;SDS011;70343;51.530;5.050;2023-07-02T05:53:49;13.88;;;5.88;;
80891;SDS011;70343;51.530;5.050;2023-07-02T05:56:15;14.15;;;5.65;;
80891;SDS011;70343;51.530;5.050;2023-07-02T05:58:41;11.75;;;6.00;;
80891;SDS011;70343;51.530;5.050;2023-07-02T06:01:07;13.05;;;5.05;;
80891;SDS011;70343;51.530;5.050;2023-07-02T06:03:32;16.45;;;5.90;;
80891;SDS011;70343;51.530;5.050;2023-07-02T06:05:58;14.18;;;5.88;;
80891;SDS011;70343;51.530;5.050;2023-07-02T06:08:23;14.05;;;5.40;;
80891;SDS011;70343;51.530;5.050;2023-07-02T06:10:49;12.43;;;5.45;;
80891;SDS011;70343;51.530;5.050;2023-07-02T06:13:15;15.82;;;5.45;;
80891;SDS011;70343;51.530;5.050;2023-07-02T06:15:41;11.43;;;5.57;;
80891;SDS011;70343;51.530;5.050;2023-07-02T06:18:07;14.20;;;5.97;;
80891;SDS011;70343;51.530;5.050;2023-07-02T06:20:32;13.93;;;5.93;;
80891;SDS011;70343;51.530;5.050;2023-07-02T06:22:58;13.75;;;5.60;;
80891;SDS011;70343;51.530;5.050;2023-07-02T06:25:24;11.38;;;5.20;;
80891;SDS011;70343;51.530;5.050;2023-07-02T06:27:50;12.43;;;6.35;;
80891;SDS011;70343;51.530;5.050;2023-07-02T06:30:15;14.75;;;6.40;;
80891;SDS011;70343;51.530;5.050;2023-07-02T06:32:41;12.80;;;6.20;;
80891;SDS011;70343;51.530;5.050;2023-07-02T06:35:07;11.02;;;5.50;;
80891;SDS011;70343;51.530;5.050;2023-07-02T06:37:32;16.10;;;5.88;;
80891;SDS011;70343;51.530;5.050;2023-07-02T06:39:58;12.77;;;5.63;;
80891;SDS011;70343;51.530;5.050;2023-07-02T06:42:24;13.02;;;5.63;;
80891;SDS011;70343;51.530;5.050;2023-07-02T06:44:50;12.95;;;6.63;;
80891;SDS011;70343;51.530;5.050;2023-07-02T06:47:16;11.75;;;5.25;;
80891;SDS011;70343;51.530;5.050;2023-07-02T06:49:42;13.68;;;6.15;;
80891;SDS011;70343;51.530;5.050;2023-07-02T06:52:08;15.23;;;5.80;;
80891;SDS011;70343;51.530;5.050;2023-07-02T06:54:33;12.88;;;5.80;;
80891;SDS011;70343;51.530;5.050;2023-07-02T06:56:59;15.63;;;6.57;;
80891;SDS011;70343;51.530;5.050;2023-07-02T06:59:25;14.77;;;5.63;;
80891;SDS011;70343;51.530;5.050;2023-07-02T07:01:50;11.25;;;5.65;;
80891;SDS011;70343;51.530;5.050;2023-07-02T07:04:16;8.65;;;4.93;;
80891;SDS011;70343;51.530;5.050;2023-07-02T07:06:42;12.82;;;5.22;;
80891;SDS011;70343;51.530;5.050;2023-07-02T07:09:08;11.60;;;4.95;;
80891;SDS011;70343;51.530;5.050;2023-07-02T07:11:34;10.75;;;4.68;;
80891;SDS011;70343;51.530;5.050;2023-07-02T07:13:59;11.32;;;4.75;;
80891;SDS011;70343;51.530;5.050;2023-07-02T07:16:25;12.07;;;5.00;;
80891;SDS011;70343;51.530;5.050;2023-07-02T07:18:50;9.95;;;4.43;;
80891;SDS011;70343;51.530;5.050;2023-07-02T07:21:16;9.88;;;5.28;;
80891;SDS011;70343;51.530;5.050;2023-07-02T07:23:41;11.90;;;4.55;;
80891;SDS011;70343;51.530;5.050;2023-07-02T07:26:07;10.27;;;4.70;;
80891;SDS011;70343;51.530;5.050;2023-07-02T07:28:32;10.20;;;5.25;;
80891;SDS011;70343;51.530;5.050;2023-07-02T07:30:58;10.52;;;5.57;;
80891;SDS011;70343;51.530;5.050;2023-07-02T07:33:24;11.32;;;5.13;;
80891;SDS011;70343;51.530;5.050;2023-07-02T07:35:49;8.65;;;4.05;;
80891;SDS011;70343;51.530;5.050;2023-07-02T07:38:15;10.60;;;4.88;;
80891;SDS011;70343;51.530;5.050;2023-07-02T07:40:41;8.90;;;4.97;;
80891;SDS011;70343;51.530;5.050;2023-07-02T07:43:08;12.88;;;5.22;;
80891;SDS011;70343;51.530;5.050;2023-07-02T07:45:33;13.25;;;4.80;;
80891;SDS011;70343;51.530;5.050;2023-07-02T07:47:59;13.32;;;5.13;;
80891;SDS011;70343;51.530;5.050;2023-07-02T07:50:25;16.25;;;4.60;;
80891;SDS011;70343;51.530;5.050;2023-07-02T07:52:50;9.30;;;4.40;;
80891;SDS011;70343;51.530;5.050;2023-07-02T07:55:16;11.27;;;5.20;;
80891;SDS011;70343;51.530;5.050;2023-07-02T07:57:42;11.70;;;5.35;;
80891;SDS011;70343;51.530;5.050;2023-07-02T08:00:08;11.95;;;5.25;;
80891;SDS011;70343;51.530;5.050;2023-07-02T08:02:45;11.10;;;4.88;;
80891;SDS011;70343;51.530;5.050;2023-07-02T08:05:14;11.80;;;4.57;;
80891;SDS011;70343;51.530;5.050;2023-07-02T08:07:40;9.57;;;4.20;;
80891;SDS011;70343;51.530;5.050;2023-07-02T08:10:06;8.90;;;4.32;;
80891;SDS011;70343;51.530;5.050;2023-07-02T08:12:33;9.55;;;4.82;;
80891;SDS011;70343;51.530;5.050;2023-07-02T08:14:59;9.95;;;4.82;;
80891;SDS011;70343;51.530;5.050;2023-07-02T08:17:25;9.32;;;4.00;;
80891;SDS011;70343;51.530;5.050;2023-07-02T08:19:51;8.55;;;3.95;;
80891;SDS011;70343;51.530;5.050;2023-07-02T08:22:16;10.73;;;4.63;;
80891;SDS011;70343;51.530;5.050;2023-07-02T08:24:42;10.18;;;4.57;;
80891;SDS011;70343;51.530;5.050;2023-07-02T08:27:08;8.95;;;4.65;;
80891;SDS011;70343;51.530;5.050;2023-07-02T08:29:35;8.90;;;4.13;;
80891;SDS011;70343;51.530;5.050;2023-07-02T08:32:00;9.98;;;4.80;;
80891;SDS011;70343;51.530;5.050;2023-07-02T08:34:26;7.45;;;3.83;;
80891;SDS011;70343;51.530;5.050;2023-07-02T08:36:51;9.77;;;4.22;;
80891;SDS011;70343;51.530;5.050;2023-07-02T08:39:17;9.52;;;4.00;;
80891;SDS011;70343;51.530;5.050;2023-07-02T08:41:46;9.55;;;4.57;;
80891;SDS011;70343;51.530;5.050;2023-07-02T08:44:13;11.77;;;4.40;;
80891;SDS011;70343;51.530;5.050;2023-07-02T08:46:39;7.93;;;4.30;;
80891;SDS011;70343;51.530;5.050;2023-07-02T08:49:06;10.68;;;4.93;;
80891;SDS011;70343;51.530;5.050;2023-07-02T08:51:33;10.32;;;4.72;;
80891;SDS011;70343;51.530;5.050;2023-07-02T08:53:58;10.63;;;4.43;;
80891;SDS011;70343;51.530;5.050;2023-07-02T08:56:24;11.70;;;4.45;;
80891;SDS011;70343;51.530;5.050;2023-07-02T08:58:51;10.10;;;4.50;;
80891;SDS011;70343;51.530;5.050;2023-07-02T09:01:17;9.07;;;4.18;;
80891;SDS011;70343;51.530;5.050;2023-07-02T09:03:43;8.23;;;4.18;;
80891;SDS011;70343;51.530;5.050;2023-07-02T09:06:09;9.32;;;4.75;;
80891;SDS011;70343;51.530;5.050;2023-07-02T09:08:36;9.93;;;4.43;;
80891;SDS011;70343;51.530;5.050;2023-07-02T09:11:11;6.47;;;3.78;;
80891;SDS011;70343;51.530;5.050;2023-07-02T09:13:48;10.55;;;4.57;;
80891;SDS011;70343;51.530;5.050;2023-07-02T09:19:04;10.50;;;4.32;;
80891;SDS011;70343;51.530;5.050;2023-07-02T09:21:43;10.77;;;4.40;;
80891;SDS011;70343;51.530;5.050;2023-07-02T09:24:20;9.20;;;4.93;;
80891;SDS011;70343;51.530;5.050;2023-07-02T09:26:55;10.85;;;4.78;;
80891;SDS011;70343;51.530;5.050;2023-07-02T09:29:22;8.88;;;4.38;;
80891;SDS011;70343;51.530;5.050;2023-07-02T09:31:49;9.90;;;4.80;;
80891;SDS011;70343;51.530;5.050;2023-07-02T09:34:16;8.70;;;4.13;;
80891;SDS011;70343;51.530;5.050;2023-07-02T09:36:41;11.35;;;4.68;;
80891;SDS011;70343;51.530;5.050;2023-07-02T09:39:11;12.02;;;4.13;;
80891;SDS011;70343;51.530;5.050;2023-07-02T09:41:39;9.70;;;4.57;;
80891;SDS011;70343;51.530;5.050;2023-07-02T09:44:07;10.93;;;4.50;;
80891;SDS011;70343;51.530;5.050;2023-07-02T09:46:34;12.18;;;4.57;;
80891;SDS011;70343;51.530;5.050;2023-07-02T09:49:09;10.43;;;4.93;;
80891;SDS011;70343;51.530;5.050;2023-07-02T09:51:39;9.02;;;4.78;;
80891;SDS011;70343;51.530;5.050;2023-07-02T09:54:05;11.90;;;4.07;;
80891;SDS011;70343;51.530;5.050;2023-07-02T09:56:31;10.45;;;4.97;;
80891;SDS011;70343;51.530;5.050;2023-07-02T09:58:57;9.27;;;4.95;;
80891;SDS011;70343;51.530;5.050;2023-07-02T10:01:22;11.40;;;4.78;;
80891;SDS011;70343;51.530;5.050;2023-07-02T10:03:48;9.73;;;5.25;;
80891;SDS011;70343;51.530;5.050;2023-07-02T10:06:13;14.85;;;5.70;;
80891;SDS011;70343;51.530;5.050;2023-07-02T10:08:39;10.18;;;5.13;;
80891;SDS011;70343;51.530;5.050;2023-07-02T10:11:08;14.48;;;5.50;;
80891;SDS011;70343;51.530;5.050;2023-07-02T10:13:40;10.35;;;5.50;;
80891;SDS011;70343;51.530;5.050;2023-07-02T10:16:06;12.90;;;6.40;;
80891;SDS011;70343;51.530;5.050;2023-07-02T10:18:32;12.27;;;5.97;;
80891;SDS011;70343;51.530;5.050;2023-07-02T10:20:58;11.32;;;5.85;;
80891;SDS011;70343;51.530;5.050;2023-07-02T10:23:33;11.73;;;6.15;;
80891;SDS011;70343;51.530;5.050;2023-07-02T10:26:15;12.30;;;5.90;;
80891;SDS011;70343;51.530;5.050;2023-07-02T10:28:42;14.13;;;5.47;;
80891;SDS011;70343;51.530;5.050;2023-07-02T10:31:19;15.35;;;5.60;;
80891;SDS011;70343;51.530;5.050;2023-07-02T10:33:45;15.10;;;5.90;;
80891;SDS011;70343;51.530;5.050;2023-07-02T10:36:18;13.70;;;5.20;;
80891;SDS011;70343;51.530;5.050;2023-07-02T10:38:45;11.07;;;5.50;;
80891;SDS011;70343;51.530;5.050;2023-07-02T10:41:12;13.25;;;5.53;;
80891;SDS011;70343;51.530;5.050;2023-07-02T10:43:37;11.98;;;5.43;;
80891;SDS011;70343;51.530;5.050;2023-07-02T10:46:03;11.73;;;5.68;;
80891;SDS011;70343;51.530;5.050;2023-07-02T10:48:30;11.95;;;5.72;;
80891;SDS011;70343;51.530;5.050;2023-07-02T10:50:56;13.65;;;5.55;;
80891;SDS011;70343;51.530;5.050;2023-07-02T10:53:21;13.40;;;6.57;;
80891;SDS011;70343;51.530;5.050;2023-07-02T10:55:56;11.85;;;5.13;;
80891;SDS011;70343;51.530;5.050;2023-07-02T10:58:23;14.05;;;5.95;;
80891;SDS011;70343;51.530;5.050;2023-07-02T11:00:49;11.60;;;5.25;;
80891;SDS011;70343;51.530;5.050;2023-07-02T11:03:20;15.80;;;5.50;;
80891;SDS011;70343;51.530;5.050;2023-07-02T11:05:50;10.50;;;5.63;;
80891;SDS011;70343;51.530;5.050;2023-07-02T11:08:17;12.75;;;6.38;;
80891;SDS011;70343;51.530;5.050;2023-07-02T11:10:42;11.77;;;5.28;;
80891;SDS011;70343;51.530;5.050;2023-07-02T11:13:12;13.20;;;5.85;;
80891;SDS011;70343;51.530;5.050;2023-07-02T11:15:38;9.18;;;5.35;;
80891;SDS011;70343;51.530;5.050;2023-07-02T11:18:13;12.63;;;5.25;;
80891;SDS011;70343;51.530;5.050;2023-07-02T11:20:41;15.05;;;6.43;;
80891;SDS011;70343;51.530;5.050;2023-07-02T11:23:41;10.25;;;5.10;;
80891;SDS011;70343;51.530;5.050;2023-07-02T11:26:00;13.20;;;5.95;;
80891;SDS011;70343;51.530;5.050;2023-07-02T11:28:29;11.43;;;5.22;;
80891;SDS011;70343;51.530;5.050;2023-07-02T11:31:02;11.43;;;5.20;;
80891;SDS011;70343;51.530;5.050;2023-07-02T11:33:38;10.50;;;4.85;;
80891;SDS011;70343;51.530;5.050;2023-07-02T11:36:05;9.20;;;4.65;;
80891;SDS011;70343;51.530;5.050;2023-07-02T11:38:33;7.80;;;4.50;;
80891;SDS011;70343;51.530;5.050;2023-07-02T11:40:59;11.30;;;5.15;;
80891;SDS011;70343;51.530;5.050;2023-07-02T11:43:25;9.45;;;4.50;;
80891;SDS011;70343;51.530;5.050;2023-07-02T11:45:51;9.23;;;4.60;;
80891;SDS011;70343;51.530;5.050;2023-07-02T11:48:17;10.77;;;4.57;;
80891;SDS011;70343;51.530;5.050;2023-07-02T11:50:42;8.35;;;4.28;;
80891;SDS011;70343;51.530;5.050;2023-07-02T11:53:08;7.88;;;4.40;;
80891;SDS011;70343;51.530;5.050;2023-07-02T11:55:33;7.95;;;4.50;;
80891;SDS011;70343;51.530;5.050;2023-07-02T11:57:59;7.45;;;4.18;;
80891;SDS011;70343;51.530;5.050;2023-07-02T12:00:24;8.68;;;4.22;;
80891;SDS011;70343;51.530;5.050;2023-07-02T12:02:52;7.68;;;3.90;;
80891;SDS011;70343;51.530;5.050;2023-07-02T12:05:18;6.07;;;3.33;;
80891;SDS011;70343;51.530;5.050;2023-07-02T12:07:43;6.75;;;3.88;;
80891;SDS011;70343;51.530;5.050;2023-07-02T12:10:09;4.07;;;3.03;;
80891;SDS011;70343;51.530;5.050;2023-07-02T12:12:34;6.90;;;3.22;;
80891;SDS011;70343;51.530;5.050;2023-07-02T12:15:00;5.15;;;2.80;;
80891;SDS011;70343;51.530;5.050;2023-07-02T12:17:26;5.75;;;2.95;;
80891;SDS011;70343;51.530;5.050;2023-07-02T12:19:53;5.75;;;3.03;;
80891;SDS011;70343;51.530;5.050;2023-07-02T12:22:19;5.90;;;2.85;;
80891;SDS011;70343;51.530;5.050;2023-07-02T12:24:47;6.50;;;3.00;;
80891;SDS011;70343;51.530;5.050;2023-07-02T12:27:13;7.72;;;3.47;;
80891;SDS011;70343;51.530;5.050;2023-07-02T12:29:39;4.70;;;2.72;;
80891;SDS011;70343;51.530;5.050;2023-07-02T12:32:04;4.93;;;2.50;;
80891;SDS011;70343;51.530;5.050;2023-07-02T12:34:31;4.90;;;2.50;;
80891;SDS011;70343;51.530;5.050;2023-07-02T12:36:57;5.45;;;2.75;;
80891;SDS011;70343;51.530;5.050;2023-07-02T12:39:22;6.72;;;2.60;;
80891;SDS011;70343;51.530;5.050;2023-07-02T12:41:48;5.60;;;2.70;;
80891;SDS011;70343;51.530;5.050;2023-07-02T12:44:13;6.85;;;3.10;;
80891;SDS011;70343;51.530;5.050;2023-07-02T12:46:39;4.97;;;2.97;;
80891;SDS011;70343;51.530;5.050;2023-07-02T12:49:04;9.15;;;3.15;;
80891;SDS011;70343;51.530;5.050;2023-07-02T12:51:30;6.80;;;3.05;;
80891;SDS011;70343;51.530;5.050;2023-07-02T12:53:55;7.13;;;2.90;;
80891;SDS011;70343;51.530;5.050;2023-07-02T12:56:21;5.53;;;3.28;;
80891;SDS011;70343;51.530;5.050;2023-07-02T12:58:47;5.45;;;2.60;;
80891;SDS011;70343;51.530;5.050;2023-07-02T13:01:12;6.45;;;3.45;;
80891;SDS011;70343;51.530;5.050;2023-07-02T13:03:38;7.60;;;2.80;;
80891;SDS011;70343;51.530;5.050;2023-07-02T13:06:10;8.55;;;3.38;;
80891;SDS011;70343;51.530;5.050;2023-07-02T13:08:36;5.68;;;2.88;;
80891;SDS011;70343;51.530;5.050;2023-07-02T13:11:01;6.38;;;3.58;;
80891;SDS011;70343;51.530;5.050;2023-07-02T13:13:27;7.60;;;3.83;;
80891;SDS011;70343;51.530;5.050;2023-07-02T13:15:52;5.57;;;2.70;;
80891;SDS011;70343;51.530;5.050;2023-07-02T13:18:18;6.63;;;3.35;;
80891;SDS011;70343;51.530;5.050;2023-07-02T13:20:43;6.82;;;3.20;;
80891;SDS011;70343;51.530;5.050;2023-07-02T13:23:09;9.50;;;3.55;;
80891;SDS011;70343;51.530;5.050;2023-07-02T13:25:34;5.07;;;3.45;;
80891;SDS011;70343;51.530;5.050;2023-07-02T13:28:00;7.47;;;3.20;;
80891;SDS011;70343;51.530;5.050;2023-07-02T13:30:25;6.30;;;3.10;;
80891;SDS011;70343;51.530;5.050;2023-07-02T13:32:53;6.80;;;3.60;;
80891;SDS011;70343;51.530;5.050;2023-07-02T13:35:19;7.10;;;3.30;;
80891;SDS011;70343;51.530;5.050;2023-07-02T13:37:45;6.32;;;3.47;;
80891;SDS011;70343;51.530;5.050;2023-07-02T13:40:11;6.65;;;3.83;;
80891;SDS011;70343;51.530;5.050;2023-07-02T13:42:38;7.22;;;3.03;;
80891;SDS011;70343;51.530;5.050;2023-07-02T13:45:03;5.30;;;3.17;;
80891;SDS011;70343;51.530;5.050;2023-07-02T13:47:30;5.68;;;3.47;;
80891;SDS011;70343;51.530;5.050;2023-07-02T13:49:55;6.55;;;3.10;;
80891;SDS011;70343;51.530;5.050;2023-07-02T13:52:21;6.30;;;3.83;;
80891;SDS011;70343;51.530;5.050;2023-07-02T13:54:46;6.63;;;3.30;;
80891;SDS011;70343;51.530;5.050;2023-07-02T13:57:12;7.50;;;3.42;;
80891;SDS011;70343;51.530;5.050;2023-07-02T13:59:38;6.55;;;3.45;;
80891;SDS011;70343;51.530;5.050;2023-07-02T14:02:04;11.13;;;3.80;;
80891;SDS011;70343;51.530;5.050;2023-07-02T14:04:30;9.45;;;3.90;;
80891;SDS011;70343;51.530;5.050;2023-07-02T14:06:55;6.80;;;3.25;;
80891;SDS011;70343;51.530;5.050;2023-07-02T14:09:21;9.05;;;3.67;;
80891;SDS011;70343;51.530;5.050;2023-07-02T14:11:47;6.28;;;3.58;;
80891;SDS011;70343;51.530;5.050;2023-07-02T14:14:12;7.57;;;3.72;;
80891;SDS011;70343;51.530;5.050;2023-07-02T14:16:38;9.60;;;4.30;;
80891;SDS011;70343;51.530;5.050;2023-07-02T14:19:03;6.40;;;3.53;;
80891;SDS011;70343;51.530;5.050;2023-07-02T14:21:29;8.10;;;3.80;;
80891;SDS011;70343;51.530;5.050;2023-07-02T14:23:55;9.65;;;4.40;;
80891;SDS011;70343;51.530;5.050;2023-07-02T14:26:20;6.82;;;3.80;;
80891;SDS011;70343;51.530;5.050;2023-07-02T14:28:45;9.10;;;3.60;;
80891;SDS011;70343;51.530;5.050;2023-07-02T14:31:11;8.40;;;4.38;;
80891;SDS011;70343;51.530;5.050;2023-07-02T14:33:37;9.82;;;4.53;;
80891;SDS011;70343;51.530;5.050;2023-07-02T14:36:03;8.70;;;4.43;;
80891;SDS011;70343;51.530;5.050;2023-07-02T14:38:30;8.40;;;3.80;;
80891;SDS011;70343;51.530;5.050;2023-07-02T14:40:56;8.00;;;4.10;;
80891;SDS011;70343;51.530;5.050;2023-07-02T14:43:25;7.22;;;4.07;;
80891;SDS011;70343;51.530;5.050;2023-07-02T14:45:53;8.43;;;4.30;;
80891;SDS011;70343;51.530;5.050;2023-07-02T14:48:20;10.02;;;4.30;;
80891;SDS011;70343;51.530;5.050;2023-07-02T14:50:50;7.60;;;4.10;;
80891;SDS011;70343;51.530;5.050;2023-07-02T14:53:17;10.40;;;4.43;;
80891;SDS011;70343;51.530;5.050;2023-07-02T14:55:43;8.77;;;4.25;;
80891;SDS011;70343;51.530;5.050;2023-07-02T14:58:10;8.40;;;4.13;;
80891;SDS011;70343;51.530;5.050;2023-07-02T15:00:46;9.48;;;4.38;;
80891;SDS011;70343;51.530;5.050;2023-07-02T15:03:13;9.57;;;4.15;;
80891;SDS011;70343;51.530;5.050;2023-07-02T15:05:39;9.57;;;4.38;;
80891;SDS011;70343;51.530;5.050;2023-07-02T15:08:07;12.27;;;5.10;;
80891;SDS011;70343;51.530;5.050;2023-07-02T15:10:33;7.70;;;4.30;;
80891;SDS011;70343;51.530;5.050;2023-07-02T15:13:00;9.25;;;4.88;;
80891;SDS011;70343;51.530;5.050;2023-07-02T15:15:26;10.57;;;4.75;;
80891;SDS011;70343;51.530;5.050;2023-07-02T15:17:52;11.02;;;4.47;;